100LL.CA
Aviation Fuel Pricing for Canadians
Please upgrade your browser - Tested with IE9, FireFox, Chrome, Safari

Fuel Airports Other Help
Prices Economy Info List METAR/TAF Kneeboard Help

Reference Airport: PETERBOROUGH, ON
N 44 13 50  W 078 21 48
Provinces to show:

CYPQ PETERBOROUGH, ON
WEATHER
METARCYPQ 221500Z AUTO 08005KT 040V110 9SM BKN008 OVC018 19/18 A3005 RMK SLP176 DENSITY ALT 1100FT
TAFTAF AMD CYPQ 221518Z 2215/2302 08005KT P6SM BKN008 OVC015 TEMPO 2215/2218 BKN025 OVC050 PROB30 2215/2218 OVC007 FM221800 15008KT P6SM SCT020 OVC050 TEMPO 2218/2220 P6SM -SHRA OVC015 FM222000 15008KT P6SM SCT020 OVC030 TEMPO 2220/2302 4SM -SHRA BR BKN020 OVC050 PROB30 2220/2302 2SM TSRA BR BKN006 OVC020CB RMK FCST BASED ON AUTO OBS. NXT FCST BY 222000Z
OTHER SITES

FlightAware

FltPlan

Google Maps

SkyVector
FUEL
FBO 100LL
member
100LL
public
JETA MOGAS
Stewart Aviation (2020-05-12)2.1901.898
  Note: http://www.stewartaviation.ca/
Canada Flight Supplement - CYPQ
(opens in new tab/window)


Please Send Updates!

Desktop Version ]  [ Mobile Version ]  [ Disclaimer ]